Terminal Aerodrome Forecast
Issued by NWS Cleveland, OH

Home | Current Version | Previous Version | Graphics & Text | Print | Product List | Glossary On
Versions: 1 2 3 4 5 6 7 8 9 10 11 12 13 14 15 16 17 18 19 20 21 22 23 24 25 26
000
FTUS41 KCLE 151800 AAA
TAFERI
TAF AMD
KERI 151856Z 1519/1618 33004KT 5SM BR BKN009
     FM152100 07006KT P6SM BKN014
     FM160900 15008KT 5SM -RA BR OVC040
     FM161300 16010KT 4SM -RA BR BKN018 OVC040=

USA.gov is the U.S. government's official web portal to all federal, state and local government web resources and services.